Time;durP1;ratioP1;P1;durP2;ratioP2;P2;SDS_P1;SDS_P2;PMS_P1;PMS_P2;Temp;Humidity;BMP_temperature;BMP_pressure;BME280_temperature;BME280_humidity;BME280_pressure;Samples;Min_cycle;Max_cycle;Signal;HPM_P1;HPM_P2
2023/06/16 00:00:32;;;;;;;9.00;7.93;;;19.00;99.90;;;;;;5075074;28;20440;-49
2023/06/16 00:02:59;;;;;;;8.63;7.73;;;19.30;99.90;;;;;;5075078;28;20459;-49
2023/06/16 00:05:26;;;;;;;10.20;9.20;;;18.90;99.90;;;;;;5075114;28;20461;-49
2023/06/16 00:07:53;;;;;;;9.07;8.20;;;19.20;99.90;;;;;;5075064;28;20848;-48
2023/06/16 00:10:20;;;;;;;9.93;8.87;;;18.90;99.90;;;;;;5057020;28;20874;-49
2023/06/16 00:12:47;;;;;;;9.07;8.20;;;18.80;99.90;;;;;;5075237;28;20441;-48
2023/06/16 00:15:13;;;;;;;9.73;8.23;;;18.50;99.90;;;;;;5075095;28;20433;-49
2023/06/16 00:17:46;;;;;;;11.77;9.30;;;19.10;99.90;;;;;;5075242;28;20443;-49
2023/06/16 00:20:14;;;;;;;8.90;8.10;;;19.20;99.90;;;;;;5074897;28;20414;-49
2023/06/16 00:22:47;;;;;;;7.73;7.03;;;19.10;99.90;;;;;;5074904;28;20472;-49
2023/06/16 00:25:15;;;;;;;8.23;7.43;;;18.80;99.90;;;;;;5056817;28;20841;-49
2023/06/16 00:27:42;;;;;;;12.17;10.10;;;18.60;99.90;;;;;;5075107;28;20574;-50
2023/06/16 00:30:10;;;;;;;10.30;8.47;;;19.20;99.90;;;;;;5056815;28;20449;-49
2023/06/16 00:32:36;;;;;;;9.90;7.57;;;19.50;99.90;;;;;;5075197;28;20845;-50
2023/06/16 00:35:05;;;;;;;8.90;8.00;;;19.00;99.90;;;;;;5074831;28;20457;-49
2023/06/16 00:37:32;;;;;;;9.77;7.87;;;18.60;99.90;;;;;;5075752;28;20442;-49
2023/06/16 00:39:59;;;;;;;8.93;8.13;;;18.90;99.90;;;;;;5075601;28;20498;-49
2023/06/16 00:42:25;;;;;;;11.77;9.53;;;18.80;99.90;;;;;;5057352;28;20477;-49
2023/06/16 00:44:52;;;;;;;8.10;7.40;;;18.80;99.90;;;;;;5075913;28;20467;-50
2023/06/16 00:47:19;;;;;;;8.77;7.87;;;18.90;99.90;;;;;;5057073;28;20965;-49
2023/06/16 00:49:45;;;;;;;9.87;7.77;;;18.60;99.90;;;;;;5056564;28;20448;-49
2023/06/16 00:52:15;;;;;;;9.03;7.80;;;18.20;99.90;;;;;;5074974;28;20441;-50
2023/06/16 00:54:43;;;;;;;11.63;8.40;;;18.50;99.90;;;;;;5056700;28;20452;-49
2023/06/16 00:57:13;;;;;;;9.13;8.00;;;18.40;99.90;;;;;;5056520;28;20459;-49
2023/06/16 00:59:40;;;;;;;9.70;8.60;;;18.50;99.90;;;;;;5073926;28;20441;-48
2023/06/16 01:02:07;;;;;;;9.30;7.43;;;18.50;99.90;;;;;;5056226;28;20488;-49
2023/06/16 01:04:35;;;;;;;8.70;7.50;;;18.40;99.90;;;;;;5056219;28;20527;-49
2023/06/16 01:07:10;;;;;;;11.53;8.93;;;18.80;99.90;;;;;;5056325;28;20449;-48
2023/06/16 01:09:48;;;;;;;12.37;8.90;;;18.40;99.90;;;;;;5056310;28;20451;-49
2023/06/16 01:12:24;;;;;;;8.10;7.30;;;18.30;99.90;;;;;;5056287;28;20466;-50
2023/06/16 01:15:01;;;;;;;9.53;8.63;;;18.30;99.90;;;;;;5074025;28;21030;-50
2023/06/16 01:17:32;;;;;;;8.77;7.87;;;18.20;99.90;;;;;;5056167;28;20462;-49
2023/06/16 01:20:07;;;;;;;8.80;8.00;;;18.60;99.90;;;;;;5055721;28;21026;-50
2023/06/16 01:22:53;;;;;;;9.50;8.57;;;18.20;99.90;;;;;;5073845;28;20478;-48
2023/06/16 01:25:23;;;;;;;9.60;8.60;;;18.10;99.90;;;;;;5079583;22;20504;-45
2023/06/16 01:27:52;;;;;;;10.60;8.77;;;18.10;99.90;;;;;;5056251;28;20535;-45
2023/06/16 01:30:21;;;;;;;9.53;8.00;;;18.00;99.90;;;;;;5073315;28;20433;-45
2023/06/16 01:32:52;;;;;;;7.87;7.13;;;18.10;99.90;;;;;;5074050;28;20829;-45
2023/06/16 01:35:21;;;;;;;8.60;7.80;;;18.00;99.90;;;;;;5055525;28;20446;-44
2023/06/16 01:37:50;;;;;;;10.10;7.20;;;18.20;99.90;;;;;;5073400;28;20435;-45
2023/06/16 01:40:17;;;;;;;9.07;7.10;;;18.00;99.90;;;;;;5072718;28;20943;-45
2023/06/16 01:42:47;;;;;;;8.10;7.00;;;18.10;99.90;;;;;;5055637;28;20463;-46
2023/06/16 01:45:15;;;;;;;6.73;6.13;;;18.00;99.90;;;;;;5057179;28;20831;-44
2023/06/16 01:47:43;;;;;;;7.50;6.80;;;18.00;99.90;;;;;;5057050;28;20452;-46
2023/06/16 01:50:11;;;;;;;9.70;7.70;;;18.00;99.90;;;;;;5073515;28;20432;-45
2023/06/16 01:52:38;;;;;;;7.13;6.43;;;18.00;99.90;;;;;;5073216;28;20429;-46
2023/06/16 01:55:05;;;;;;;8.07;7.23;;;17.90;99.90;;;;;;5073094;28;20448;-45
2023/06/16 01:57:32;;;;;;;7.60;6.90;;;17.90;99.90;;;;;;5055262;28;20451;-46
2023/06/16 02:00:04;;;;;;;7.43;6.63;;;17.90;99.90;;;;;;5054765;28;20449;-46
2023/06/16 02:02:46;;;;;;;8.50;7.37;;;18.10;99.90;;;;;;5073088;28;20877;-44
2023/06/16 02:05:16;;;;;;;11.13;7.13;;;18.30;99.90;;;;;;5055055;28;20457;-44
2023/06/16 02:07:47;;;;;;;9.50;6.37;;;17.90;99.90;;;;;;5073113;28;20490;-45
2023/06/16 02:10:15;;;;;;;6.73;6.13;;;17.90;99.90;;;;;;5055764;28;20453;-45
2023/06/16 02:12:42;;;;;;;6.60;6.00;;;17.90;99.90;;;;;;5056145;28;20487;-45
2023/06/16 02:15:11;;;;;;;8.03;6.50;;;17.70;99.90;;;;;;5054976;28;20477;-44
2023/06/16 02:17:44;;;;;;;7.83;7.07;;;17.90;99.90;;;;;;5072828;28;20432;-45
2023/06/16 02:20:11;;;;;;;8.53;7.70;;;17.90;99.90;;;;;;5072342;28;20998;-45
2023/06/16 02:22:37;;;;;;;7.30;6.13;;;17.90;99.90;;;;;;5054687;28;20481;-45
2023/06/16 02:25:05;;;;;;;6.93;6.10;;;17.70;99.90;;;;;;5054424;28;20455;-45
2023/06/16 02:27:32;;;;;;;10.20;6.20;;;17.90;99.90;;;;;;5054576;28;20975;-44
2023/06/16 02:29:58;;;;;;;7.47;6.50;;;17.90;99.90;;;;;;5054569;28;20451;-45
2023/06/16 02:32:27;;;;;;;7.47;6.77;;;18.10;99.90;;;;;;5072506;28;20443;-44
2023/06/16 02:34:56;;;;;;;8.33;7.43;;;17.90;99.90;;;;;;5054523;28;20547;-45
2023/06/16 02:37:27;;;;;;;10.30;6.40;;;17.90;99.90;;;;;;5072426;28;20443;-45
2023/06/16 02:39:55;;;;;;;7.70;6.97;;;17.50;99.90;;;;;;5054487;28;20868;-45
2023/06/16 02:42:23;;;;;;;7.40;6.50;;;18.00;99.90;;;;;;5055316;28;20497;-45
2023/06/16 02:44:49;;;;;;;10.43;6.83;;;17.80;99.90;;;;;;5054570;28;20448;-46
2023/06/16 02:47:17;;;;;;;9.03;6.53;;;18.10;99.90;;;;;;5054170;28;20480;-45
2023/06/16 02:49:45;;;;;;;9.87;7.50;;;17.80;99.90;;;;;;5071819;28;20967;-44
2023/06/16 02:52:12;;;;;;;7.37;6.67;;;18.10;99.90;;;;;;5053498;28;20834;-46
2023/06/16 02:54:40;;;;;;;10.00;8.37;;;17.60;99.90;;;;;;5054155;28;20460;-47
2023/06/16 02:57:08;;;;;;;9.03;8.13;;;17.80;99.90;;;;;;5054155;28;20491;-44
2023/06/16 02:59:44;;;;;;;8.67;7.73;;;17.90;99.90;;;;;;5053806;28;20475;-45
2023/06/16 03:02:11;;;;;;;10.90;8.53;;;17.80;99.90;;;;;;5053980;28;20465;-45
2023/06/16 03:04:50;;;;;;;10.77;8.57;;;17.60;99.90;;;;;;5071923;28;20428;-45
2023/06/16 03:07:24;;;;;;;10.60;8.40;;;17.70;99.90;;;;;;5054006;28;20455;-45
2023/06/16 03:09:51;;;;;;;11.00;8.60;;;17.90;99.90;;;;;;5053732;28;20539;-45
2023/06/16 03:12:20;;;;;;;10.57;8.13;;;17.50;99.90;;;;;;5054063;28;20481;-44
2023/06/16 03:14:54;;;;;;;11.40;8.10;;;17.70;99.90;;;;;;5053831;28;20455;-45
2023/06/16 03:17:21;;;;;;;11.67;8.30;;;17.60;99.90;;;;;;5053697;28;20460;-45
2023/06/16 03:19:49;;;;;;;10.63;9.57;;;17.60;99.90;;;;;;5053504;28;21030;-46
2023/06/16 03:22:20;;;;;;;11.23;8.83;;;17.60;99.90;;;;;;5053783;28;20963;-46
2023/06/16 03:24:47;;;;;;;10.60;9.50;;;17.60;99.90;;;;;;5053818;28;20557;-44
2023/06/16 03:27:16;;;;;;;12.47;9.13;;;17.60;99.90;;;;;;5053845;28;20438;-44
2023/06/16 03:29:57;;;;;;;12.60;10.27;;;17.50;99.90;;;;;;5071486;28;20484;-46
2023/06/16 03:32:24;;;;;;;12.00;9.10;;;17.60;99.90;;;;;;5071691;28;20760;-46
2023/06/16 03:34:53;;;;;;;11.37;9.47;;;17.40;99.90;;;;;;5053786;28;20427;-45
2023/06/16 03:37:20;;;;;;;9.60;8.70;;;17.50;99.90;;;;;;5053963;28;21198;-44
2023/06/16 03:39:47;;;;;;;10.80;9.70;;;17.20;99.90;;;;;;5053402;28;20469;-46
2023/06/16 03:42:14;;;;;;;13.00;9.53;;;17.10;99.90;;;;;;5053928;28;20443;-45
2023/06/16 03:44:41;;;;;;;9.93;8.50;;;17.60;99.90;;;;;;5053384;28;20475;-45
2023/06/16 03:47:08;;;;;;;9.90;8.90;;;17.40;99.90;;;;;;5071538;28;20453;-45
2023/06/16 03:49:35;;;;;;;10.30;9.17;;;17.40;99.90;;;;;;5053301;28;20472;-45
2023/06/16 03:52:03;;;;;;;9.93;9.00;;;17.40;99.90;;;;;;5053582;28;20458;-45
2023/06/16 03:54:30;;;;;;;10.20;9.20;;;17.40;99.90;;;;;;5053535;28;20459;-45
2023/06/16 03:56:57;;;;;;;9.83;8.83;;;17.40;99.90;;;;;;5053269;28;20467;-45
2023/06/16 03:59:25;;;;;;;10.30;9.20;;;17.40;99.90;;;;;;5053529;28;20455;-46
2023/06/16 04:01:52;;;;;;;11.40;8.90;;;17.40;99.90;;;;;;5054091;28;20550;-46
2023/06/16 04:04:19;;;;;;;10.00;9.20;;;17.40;99.90;;;;;;5055393;28;20510;-46
2023/06/16 04:06:48;;;;;;;17.97;9.57;;;17.00;99.90;;;;;;5057198;28;20460;-46
2023/06/16 04:09:16;;;;;;;9.67;8.63;;;17.40;99.90;;;;;;5056817;28;20437;-45
2023/06/16 04:11:44;;;;;;;9.70;8.73;;;17.10;99.90;;;;;;5057180;28;20446;-46
2023/06/16 04:14:12;;;;;;;10.37;9.37;;;17.40;99.90;;;;;;5057018;28;20440;-45
2023/06/16 04:16:40;;;;;;;12.00;9.57;;;17.40;99.90;;;;;;5074830;28;20505;-45
2023/06/16 04:19:07;;;;;;;10.90;9.43;;;17.70;99.90;;;;;;5056440;28;20452;-44
2023/06/16 04:21:36;;;;;;;11.83;10.27;;;17.40;99.90;;;;;;5057001;28;20453;-45
2023/06/16 04:24:03;;;;;;;10.73;9.60;;;17.40;99.90;;;;;;5057151;28;21053;-45
2023/06/16 04:26:32;;;;;;;14.17;9.87;;;17.50;99.90;;;;;;5057114;28;20503;-45
2023/06/16 04:29:03;;;;;;;10.13;8.90;;;17.50;99.90;;;;;;5056573;28;20489;-46
2023/06/16 04:31:32;;;;;;;10.13;9.20;;;17.40;99.90;;;;;;5056919;28;20531;-45
2023/06/16 04:34:02;;;;;;;10.07;9.10;;;17.00;99.90;;;;;;5056767;28;20544;-45
2023/06/16 04:36:30;;;;;;;12.07;9.20;;;17.30;99.90;;;;;;5056884;28;20842;-45
2023/06/16 04:38:59;;;;;;;11.07;10.00;;;17.40;99.90;;;;;;5056265;28;20451;-45
2023/06/16 04:41:26;;;;;;;10.97;9.43;;;17.40;99.90;;;;;;5057002;28;20852;-46
2023/06/16 04:43:54;;;;;;;10.33;9.13;;;17.40;99.90;;;;;;5075092;28;20547;-46
2023/06/16 04:46:21;;;;;;;9.93;9.07;;;17.40;99.90;;;;;;5057017;28;20467;-43
2023/06/16 04:48:47;;;;;;;14.93;9.50;;;17.60;99.90;;;;;;5056377;28;20512;-46
2023/06/16 04:51:14;;;;;;;10.13;8.63;;;17.40;99.90;;;;;;5074693;28;20501;-46
2023/06/16 04:53:43;;;;;;;9.53;8.57;;;17.40;99.90;;;;;;5074324;28;20931;-45
2023/06/16 04:56:10;;;;;;;11.27;8.80;;;17.40;99.90;;;;;;5074376;28;20452;-46
2023/06/16 04:58:36;;;;;;;9.87;9.07;;;17.40;99.90;;;;;;5074295;28;20474;-45
2023/06/16 05:01:04;;;;;;;10.30;9.17;;;17.40;99.90;;;;;;5056436;28;20543;-46
2023/06/16 05:03:31;;;;;;;10.37;9.33;;;17.80;99.90;;;;;;5056245;28;20616;-46
2023/06/16 05:05:58;;;;;;;13.10;9.70;;;17.40;99.90;;;;;;5074059;28;20453;-46
2023/06/16 05:08:27;;;;;;;10.87;9.73;;;17.50;99.90;;;;;;5055651;28;20422;-46
2023/06/16 05:10:54;;;;;;;10.77;9.63;;;17.50;99.90;;;;;;5056177;28;20470;-47
2023/06/16 05:13:21;;;;;;;10.10;9.20;;;17.80;99.90;;;;;;5056299;28;20454;-46
2023/06/16 05:15:48;;;;;;;10.57;9.47;;;17.40;99.90;;;;;;5054956;28;21015;-45
2023/06/16 05:18:16;;;;;;;11.57;10.17;;;18.00;99.90;;;;;;5056419;28;20510;-45
2023/06/16 05:20:43;;;;;;;10.60;9.60;;;17.50;99.90;;;;;;5056111;28;20516;-45
2023/06/16 05:23:10;;;;;;;16.10;10.10;;;17.60;99.90;;;;;;5055624;28;20509;-45
2023/06/16 05:25:38;;;;;;;11.07;9.90;;;17.60;99.90;;;;;;5055699;28;20631;-45
2023/06/16 05:28:06;;;;;;;10.70;9.60;;;17.60;99.90;;;;;;5055428;28;20886;-44
2023/06/16 05:30:33;;;;;;;10.57;9.50;;;17.70;99.90;;;;;;5055421;28;20512;-47
2023/06/16 05:33:00;;;;;;;10.63;9.63;;;17.60;99.90;;;;;;5055618;28;20808;-45
2023/06/16 05:35:28;;;;;;;8.70;7.90;;;18.00;99.90;;;;;;5055724;28;20459;-44
2023/06/16 05:37:55;;;;;;;9.47;8.60;;;17.60;99.90;;;;;;5055522;28;20475;-45
2023/06/16 05:40:23;;;;;;;9.90;8.93;;;17.80;99.90;;;;;;5055025;28;20423;-47
2023/06/16 05:42:50;;;;;;;12.43;9.47;;;17.50;99.90;;;;;;5055179;28;20429;-44
2023/06/16 05:45:18;;;;;;;10.77;9.67;;;17.50;99.90;;;;;;5055175;28;20460;-46
2023/06/16 05:47:45;;;;;;;9.10;8.30;;;17.50;99.90;;;;;;5054891;28;20872;-47
2023/06/16 05:50:13;;;;;;;10.73;8.80;;;17.60;99.90;;;;;;5054629;28;20445;-46
2023/06/16 05:52:41;;;;;;;9.80;8.90;;;17.50;99.90;;;;;;5055016;28;20815;-45
2023/06/16 05:55:09;;;;;;;9.50;8.60;;;17.50;99.90;;;;;;5053854;28;20552;-46
2023/06/16 05:57:42;;;;;;;9.70;8.83;;;17.50;99.90;;;;;;5054674;28;20475;-45
2023/06/16 06:00:10;;;;;;;8.73;7.93;;;17.50;99.90;;;;;;5054729;28;20455;-45
2023/06/16 06:02:40;;;;;;;10.07;9.07;;;17.50;99.90;;;;;;5073270;28;20430;-46
2023/06/16 06:05:13;;;;;;;9.70;8.90;;;17.80;99.90;;;;;;5054782;28;20530;-47
2023/06/16 06:07:42;;;;;;;10.90;8.43;;;17.50;99.90;;;;;;5055201;28;20445;-46
2023/06/16 06:10:09;;;;;;;8.37;7.53;;;17.50;99.90;;;;;;5072991;28;20431;-46
2023/06/16 06:12:37;;;;;;;9.57;8.20;;;17.70;99.90;;;;;;5055215;28;20520;-47
2023/06/16 06:15:05;;;;;;;13.17;7.47;;;17.70;99.90;;;;;;5054146;28;20479;-45
2023/06/16 06:17:31;;;;;;;11.63;10.43;;;17.80;99.90;;;;;;5054926;28;20484;-45
2023/06/16 06:19:58;;;;;;;8.90;8.07;;;17.40;99.90;;;;;;5054555;28;20563;-46
2023/06/16 06:22:31;;;;;;;12.10;10.40;;;17.80;99.90;;;;;;5072322;28;20431;-46
2023/06/16 06:24:59;;;;;;;8.07;7.37;;;17.70;99.90;;;;;;5072549;28;20973;-45
2023/06/16 06:27:26;;;;;;;8.80;7.47;;;17.70;99.90;;;;;;5054068;28;20542;-46
2023/06/16 06:29:53;;;;;;;7.77;7.07;;;17.80;99.90;;;;;;5053974;28;20470;-44
2023/06/16 06:32:20;;;;;;;8.40;7.23;;;17.70;99.90;;;;;;5054598;28;20528;-46
2023/06/16 06:34:46;;;;;;;8.53;7.67;;;17.60;99.90;;;;;;5054848;28;20482;-46
2023/06/16 06:37:16;;;;;;;8.23;7.43;;;17.60;99.90;;;;;;5054725;28;20491;-46
2023/06/16 06:39:44;;;;;;;8.27;7.50;;;17.60;99.90;;;;;;5054353;28;20448;-46
2023/06/16 06:42:12;;;;;;;8.73;7.93;;;17.60;99.90;;;;;;5054248;28;20466;-46
2023/06/16 06:44:50;;;;;;;8.57;7.77;;;17.60;99.90;;;;;;5054237;28;21036;-46
2023/06/16 06:47:20;;;;;;;14.00;11.90;;;17.70;99.90;;;;;;5054250;28;20818;-46
2023/06/16 06:49:49;;;;;;;8.87;8.07;;;17.90;99.90;;;;;;5053633;28;20831;-45
2023/06/16 06:52:16;;;;;;;9.33;8.50;;;17.70;99.90;;;;;;5054627;28;21041;-47
2023/06/16 06:54:42;;;;;;;8.90;8.10;;;17.70;99.90;;;;;;5071856;28;20542;-45
2023/06/16 06:57:10;;;;;;;10.20;9.20;;;17.70;99.90;;;;;;5072183;28;20456;-45
2023/06/16 06:59:39;;;;;;;8.30;7.50;;;17.80;99.90;;;;;;5071785;28;20872;-46
2023/06/16 07:02:06;;;;;;;12.77;7.50;;;17.90;99.90;;;;;;5072246;28;20431;-45
2023/06/16 07:04:33;;;;;;;8.50;7.73;;;17.70;99.90;;;;;;5072594;28;20567;-46
2023/06/16 07:07:00;;;;;;;7.73;7.13;;;17.90;99.90;;;;;;5053847;28;20434;-45
2023/06/16 07:09:27;;;;;;;8.53;7.67;;;17.80;99.90;;;;;;5071768;28;20429;-46
2023/06/16 07:11:54;;;;;;;7.60;6.87;;;17.80;99.90;;;;;;5071735;28;20875;-45
2023/06/16 07:14:20;;;;;;;7.20;6.50;;;17.90;99.90;;;;;;5072042;28;20443;-45
2023/06/16 07:16:48;;;;;;;7.87;7.17;;;17.70;99.90;;;;;;5071958;28;20996;-46
2023/06/16 07:19:15;;;;;;;8.47;7.77;;;18.30;99.90;;;;;;5071698;28;20439;-46
2023/06/16 07:21:42;;;;;;;8.90;8.10;;;18.00;99.90;;;;;;5071885;28;20433;-46
2023/06/16 07:24:08;;;;;;;9.60;8.70;;;17.90;99.90;;;;;;5071053;28;20853;-45
2023/06/16 07:26:37;;;;;;;9.40;8.60;;;17.50;99.90;;;;;;5096499;22;20523;-49
2023/06/16 07:29:04;;;;;;;9.57;8.77;;;17.90;99.90;;;;;;5070983;28;20502;-49
2023/06/16 07:31:30;;;;;;;8.50;7.70;;;17.90;99.90;;;;;;5071052;28;20462;-48
2023/06/16 07:33:59;;;;;;;11.30;8.70;;;17.80;99.90;;;;;;5071061;28;20463;-49
2023/06/16 07:36:25;;;;;;;9.80;8.53;;;18.00;99.90;;;;;;5071210;28;20449;-49
2023/06/16 07:38:52;;;;;;;10.83;8.77;;;18.00;99.90;;;;;;5072141;28;20521;-49
2023/06/16 07:41:20;;;;;;;9.30;8.40;;;17.90;99.90;;;;;;5075146;28;20920;-49
2023/06/16 07:43:48;;;;;;;10.47;9.00;;;18.10;99.90;;;;;;5074837;28;20455;-49
2023/06/16 07:46:17;;;;;;;12.50;10.20;;;18.30;99.90;;;;;;5075022;28;20436;-48
2023/06/16 07:48:43;;;;;;;10.30;9.40;;;18.40;99.90;;;;;;5075044;28;20915;-48
2023/06/16 07:51:11;;;;;;;11.47;10.20;;;18.30;99.90;;;;;;5075168;28;20901;-48
2023/06/16 07:53:39;;;;;;;10.33;9.33;;;18.50;99.90;;;;;;5075081;28;20436;-50
2023/06/16 07:56:07;;;;;;;10.57;9.37;;;19.00;99.90;;;;;;5074768;28;20800;-49
2023/06/16 07:58:35;;;;;;;10.50;9.40;;;19.10;99.90;;;;;;5074659;28;20436;-50
2023/06/16 08:01:01;;;;;;;11.40;9.87;;;19.40;99.90;;;;;;5074613;28;20440;-49
2023/06/16 08:03:30;;;;;;;16.93;15.33;;;19.50;99.90;;;;;;5074883;28;20527;-49
2023/06/16 08:05:57;;;;;;;10.70;9.60;;;19.60;99.90;;;;;;5075015;28;20482;-49
2023/06/16 08:08:27;;;;;;;10.10;9.20;;;19.40;99.90;;;;;;5074522;28;20436;-50
2023/06/16 08:10:55;;;;;;;9.83;8.87;;;19.70;99.90;;;;;;5074814;28;20808;-49
2023/06/16 08:13:22;;;;;;;9.63;8.70;;;19.70;99.90;;;;;;5074616;28;20953;-50
2023/06/16 08:15:49;;;;;;;10.80;8.60;;;19.90;99.90;;;;;;5074851;28;20460;-49
2023/06/16 08:18:17;;;;;;;8.90;8.10;;;19.90;99.90;;;;;;5074248;28;20438;-49
2023/06/16 08:20:45;;;;;;;10.13;8.80;;;20.10;99.90;;;;;;5074424;28;20930;-50
2023/06/16 08:23:11;;;;;;;8.93;8.20;;;20.20;99.90;;;;;;5074573;28;20437;-50
2023/06/16 08:25:40;;;;;;;7.67;6.97;;;20.30;99.90;;;;;;5074168;28;20674;-49
2023/06/16 08:28:08;;;;;;;8.27;7.57;;;20.70;99.90;;;;;;5074340;28;20446;-49
2023/06/16 08:30:35;;;;;;;9.00;8.20;;;20.90;99.90;;;;;;5056857;28;20462;-49
2023/06/16 08:33:02;;;;;;;8.93;8.13;;;20.90;99.90;;;;;;5074527;28;20931;-50
2023/06/16 08:35:28;;;;;;;13.53;7.97;;;20.80;99.90;;;;;;5074465;28;20451;-49
2023/06/16 08:37:55;;;;;;;8.17;6.13;;;20.60;99.90;;;;;;5056079;28;20445;-49
2023/06/16 08:40:22;;;;;;;7.73;5.33;;;20.20;99.90;;;;;;5073967;28;20501;-49
2023/06/16 08:42:51;;;;;;;7.40;6.70;;;19.60;99.90;;;;;;5074159;28;20437;-48
2023/06/16 08:45:20;;;;;;;7.97;7.27;;;19.50;99.90;;;;;;5074115;28;20535;-49
2023/06/16 08:47:47;;;;;;;6.90;6.20;;;18.80;99.90;;;;;;5074395;28;20430;-50
2023/06/16 08:50:14;;;;;;;10.50;5.77;;;19.10;99.90;;;;;;5072738;28;20448;-49
2023/06/16 08:52:42;;;;;;;6.20;5.20;;;18.70;99.90;;;;;;5074786;28;20931;-48
2023/06/16 08:55:12;;;;;;;6.20;5.60;;;18.80;99.90;;;;;;5074768;28;20455;-49
2023/06/16 08:57:46;;;;;;;6.93;5.37;;;19.00;99.90;;;;;;5074361;28;20527;-49
2023/06/16 09:00:16;;;;;;;6.83;5.97;;;18.70;99.90;;;;;;5073336;28;20429;-49
2023/06/16 09:02:48;;;;;;;5.20;4.70;;;18.90;99.90;;;;;;5073811;28;20436;-49
2023/06/16 09:05:15;;;;;;;5.67;5.10;;;18.70;99.90;;;;;;5073752;28;20475;-49
2023/06/16 09:07:42;;;;;;;5.80;4.87;;;18.70;99.90;;;;;;5074001;28;20465;-49
2023/06/16 09:10:09;;;;;;;8.17;6.43;;;19.10;99.90;;;;;;5073925;28;20444;-48
2023/06/16 09:12:36;;;;;;;5.57;4.83;;;18.90;99.90;;;;;;5073738;28;20437;-49
2023/06/16 09:15:08;;;;;;;7.13;4.30;;;18.50;99.90;;;;;;5073603;28;20428;-49
2023/06/16 09:17:37;;;;;;;5.67;5.13;;;18.80;99.90;;;;;;5073721;28;20868;-49
2023/06/16 09:20:06;;;;;;;4.77;4.37;;;18.70;99.90;;;;;;5073162;28;20960;-49
2023/06/16 09:22:33;;;;;;;4.47;4.07;;;18.80;99.90;;;;;;5073618;28;20443;-49
2023/06/16 09:25:01;;;;;;;4.67;4.27;;;19.30;99.90;;;;;;5072965;28;20477;-50
2023/06/16 09:27:40;;;;;;;5.00;4.23;;;18.90;99.90;;;;;;5073219;28;20495;-50
2023/06/16 09:30:09;;;;;;;4.63;4.23;;;18.90;99.90;;;;;;5072972;28;20519;-49
2023/06/16 09:32:40;;;;;;;6.07;5.40;;;19.10;99.90;;;;;;5072984;28;20486;-49
2023/06/16 09:35:18;;;;;;;6.93;4.60;;;19.30;99.90;;;;;;5073896;28;20447;-49
2023/06/16 09:37:46;;;;;;;4.60;4.20;;;19.40;99.90;;;;;;5055398;28;20494;-49
2023/06/16 09:40:14;;;;;;;5.40;4.90;;;19.50;99.90;;;;;;5055352;28;20449;-49
2023/06/16 09:42:42;;;;;;;4.37;3.93;;;19.60;99.90;;;;;;5055476;28;20477;-48
2023/06/16 09:45:10;;;;;;;6.50;5.90;;;20.50;99.90;;;;;;5055428;28;20469;-48
2023/06/16 09:47:38;;;;;;;4.70;4.30;;;19.90;99.90;;;;;;5073650;28;20502;-49
2023/06/16 09:50:12;;;;;;;4.87;4.20;;;19.80;99.90;;;;;;5073624;28;20451;-50
2023/06/16 09:52:41;;;;;;;6.40;4.30;;;20.20;99.90;;;;;;5073404;28;20802;-49
2023/06/16 09:55:09;;;;;;;6.73;4.90;;;20.20;99.90;;;;;;5073633;28;20887;-50
2023/06/16 09:57:38;;;;;;;4.93;4.43;;;20.10;99.90;;;;;;5073563;28;20477;-48
2023/06/16 10:00:09;;;;;;;5.33;4.67;;;20.10;99.90;;;;;;5072915;28;20963;-48
2023/06/16 10:02:37;;;;;;;7.00;4.73;;;20.00;99.90;;;;;;5055221;28;20512;-50
2023/06/16 10:05:10;;;;;;;5.57;5.07;;;20.00;99.90;;;;;;5054921;28;20466;-49
2023/06/16 10:07:39;;;;;;;6.53;5.33;;;19.90;99.90;;;;;;5073268;28;20426;-50
2023/06/16 10:10:11;;;;;;;5.23;4.80;;;19.80;99.90;;;;;;5054410;28;20481;-49
2023/06/16 10:12:41;;;;;;;5.27;4.77;;;19.60;99.90;;;;;;5072245;28;20463;-48
2023/06/16 10:15:10;;;;;;;8.70;5.30;;;20.30;99.90;;;;;;5072566;28;20820;-51
2023/06/16 10:17:40;;;;;;;8.27;5.63;;;20.00;99.90;;;;;;5072562;28;20437;-50
2023/06/16 10:20:13;;;;;;;7.03;5.70;;;20.10;99.90;;;;;;5071576;28;20461;-49
2023/06/16 10:22:43;;;;;;;4.70;4.30;;;20.00;99.90;;;;;;5071944;28;20430;-50
2023/06/16 10:25:11;;;;;;;5.90;5.30;;;19.90;99.90;;;;;;5071937;28;20502;-50
2023/06/16 10:27:40;;;;;;;8.43;5.40;;;19.80;99.90;;;;;;5054337;28;20453;-49
2023/06/16 10:30:09;;;;;;;5.90;4.87;;;19.70;99.90;;;;;;5071533;28;20934;-49
2023/06/16 10:32:37;;;;;;;6.60;6.10;;;19.70;99.90;;;;;;5072039;28;20430;-49
2023/06/16 10:35:10;;;;;;;6.73;5.23;;;19.70;99.90;;;;;;5088391;28;20480;-49
2023/06/16 10:37:38;;;;;;;8.13;5.80;;;19.80;99.90;;;;;;5092072;28;20503;-49
2023/06/16 10:40:06;;;;;;;7.97;5.60;;;19.80;99.90;;;;;;5091558;28;20444;-50
2023/06/16 10:42:34;;;;;;;8.27;6.50;;;20.20;99.90;;;;;;5092086;28;20469;-49
2023/06/16 10:45:22;;;;;;;5.90;5.40;;;20.30;99.90;;;;;;5092326;28;20461;-49
2023/06/16 10:47:55;;;;;;;6.60;5.63;;;20.30;99.90;;;;;;5092083;28;20437;-50
2023/06/16 10:50:30;;;;;;;6.43;5.50;;;20.20;99.90;;;;;;5091569;28;20419;-48
2023/06/16 10:53:09;;;;;;;6.97;5.47;;;20.10;99.90;;;;;;5091941;28;20403;-50
2023/06/16 10:55:39;;;;;;;7.50;5.47;;;20.30;99.90;;;;;;5092584;28;20481;-50
2023/06/16 10:58:23;;;;;;;6.93;5.27;;;20.40;99.90;;;;;;5091600;28;20433;-50
2023/06/16 11:01:06;;;;;;;6.10;5.50;;;20.80;99.90;;;;;;5073775;28;20457;-49
2023/06/16 11:03:36;;;;;;;8.57;5.30;;;20.70;99.90;;;;;;5091975;28;20484;-49
2023/06/16 11:06:04;;;;;;;6.40;5.80;;;20.90;99.90;;;;;;5091359;28;20600;-49
2023/06/16 11:08:49;;;;;;;8.53;5.27;;;21.00;99.90;;;;;;5090946;28;20426;-50
2023/06/16 11:11:17;;;;;;;5.90;5.13;;;21.10;99.90;;;;;;5092015;28;20869;-49
2023/06/16 11:13:43;;;;;;;10.77;5.23;;;21.00;99.90;;;;;;5090885;28;20426;-50
2023/06/16 11:16:10;;;;;;;6.77;4.83;;;21.00;99.90;;;;;;5091821;28;20455;-49
2023/06/16 11:18:37;;;;;;;6.63;4.87;;;21.20;99.90;;;;;;5091327;28;20431;-49
2023/06/16 11:21:06;;;;;;;6.23;4.97;;;21.00;99.70;;;;;;5073431;28;20455;-49
2023/06/16 11:23:35;;;;;;;6.77;5.40;;;21.00;99.60;;;;;;5091613;28;21060;-49
2023/06/16 11:26:07;;;;;;;5.77;5.23;;;21.00;99.50;;;;;;5091706;28;20570;-49
2023/06/16 11:28:34;;;;;;;5.87;5.37;;;20.90;99.60;;;;;;5091215;28;20462;-49
2023/06/16 11:31:02;;;;;;;7.20;5.90;;;20.40;99.30;;;;;;5091629;28;20802;-49
2023/06/16 11:33:32;;;;;;;5.80;5.20;;;20.80;99.50;;;;;;5073416;28;20455;-49
2023/06/16 11:36:16;;;;;;;6.07;5.50;;;20.80;99.20;;;;;;5091689;28;20462;-48
2023/06/16 11:38:45;;;;;;;6.30;4.90;;;20.90;99.00;;;;;;5091343;28;20525;-50
2023/06/16 11:41:16;;;;;;;5.07;4.57;;;21.10;98.90;;;;;;5091459;28;20934;-48
2023/06/16 11:43:43;;;;;;;9.23;5.83;;;21.20;98.30;;;;;;5091280;28;20520;-49
2023/06/16 11:46:10;;;;;;;6.70;6.07;;;21.30;98.10;;;;;;5091248;28;20479;-49
2023/06/16 11:48:37;;;;;;;7.87;5.40;;;21.50;98.00;;;;;;5091248;28;20477;-50
2023/06/16 11:51:04;;;;;;;10.67;5.47;;;21.50;97.80;;;;;;5091423;28;20435;-50
2023/06/16 11:53:32;;;;;;;6.20;5.53;;;21.20;97.50;;;;;;5091469;28;20882;-49
2023/06/16 11:56:00;;;;;;;6.77;6.13;;;21.60;97.90;;;;;;5091574;28;20537;-50
2023/06/16 11:58:27;;;;;;;6.77;6.10;;;21.60;98.20;;;;;;5090970;28;20482;-49
2023/06/16 12:00:59;;;;;;;6.10;5.50;;;21.50;98.60;;;;;;5091753;28;20465;-49
2023/06/16 12:03:27;;;;;;;10.03;6.57;;;21.10;98.80;;;;;;5091265;28;20443;-50
2023/06/16 12:05:54;;;;;;;14.00;7.47;;;21.70;99.40;;;;;;5091060;28;20464;-50
2023/06/16 12:08:37;;;;;;;8.30;7.10;;;21.10;99.20;;;;;;5091014;28;20436;-50
2023/06/16 12:11:06;;;;;;;9.37;6.50;;;21.30;99.40;;;;;;5090939;28;20849;-49
2023/06/16 12:13:34;;;;;;;7.47;6.40;;;21.10;99.60;;;;;;5090820;28;20463;-49
2023/06/16 12:16:01;;;;;;;7.87;6.70;;;21.10;99.80;;;;;;5091392;28;20458;-50
2023/06/16 12:18:28;;;;;;;7.77;6.80;;;21.10;99.90;;;;;;5090475;28;20414;-49
2023/06/16 12:20:55;;;;;;;5.93;5.33;;;20.70;99.80;;;;;;5090826;28;20443;-49
2023/06/16 12:23:21;;;;;;;7.03;6.30;;;21.00;99.90;;;;;;5090834;28;20923;-50
2023/06/16 12:25:49;;;;;;;10.10;6.47;;;20.90;99.90;;;;;;5093230;28;20870;-48
2023/06/16 12:28:20;;;;;;;7.70;6.67;;;21.20;99.90;;;;;;5094128;28;20431;-49
2023/06/16 12:30:47;;;;;;;7.10;6.40;;;21.10;99.90;;;;;;5094747;28;20442;-50
2023/06/16 12:33:15;;;;;;;6.00;5.40;;;21.00;99.90;;;;;;5094466;28;20865;-49
2023/06/16 12:35:42;;;;;;;7.50;6.30;;;21.00;99.90;;;;;;5094411;28;20495;-49
2023/06/16 12:38:08;;;;;;;6.30;5.60;;;21.00;99.90;;;;;;5093468;28;20446;-51
2023/06/16 12:40:35;;;;;;;8.10;6.40;;;21.00;99.90;;;;;;5094572;28;20435;-50
2023/06/16 12:43:23;;;;;;;9.67;6.07;;;20.90;99.90;;;;;;5093732;28;20430;-50
2023/06/16 12:45:49;;;;;;;8.87;6.07;;;20.80;99.90;;;;;;5094279;28;20479;-49
2023/06/16 12:48:16;;;;;;;14.90;6.23;;;20.70;99.90;;;;;;5094463;28;20488;-49
2023/06/16 12:50:43;;;;;;;6.13;5.53;;;20.70;99.90;;;;;;5094373;28;20569;-49